sensor_id;sensor_type;location;lat;lon;timestamp;P1;durP1;ratioP1;P2;durP2;ratioP2
55202;SDS011;41077;52.956;6.796;2022-11-15T00:00:05;40.35;;;26.27;;
55202;SDS011;41077;52.956;6.796;2022-11-15T00:02:32;31.58;;;25.25;;
55202;SDS011;41077;52.956;6.796;2022-11-15T00:04:58;41.08;;;25.92;;
55202;SDS011;41077;52.956;6.796;2022-11-15T00:07:23;35.28;;;25.63;;
55202;SDS011;41077;52.956;6.796;2022-11-15T00:09:49;35.33;;;25.67;;
55202;SDS011;41077;52.956;6.796;2022-11-15T00:12:15;39.67;;;26.38;;
55202;SDS011;41077;52.956;6.796;2022-11-15T00:14:40;36.20;;;25.98;;
55202;SDS011;41077;52.956;6.796;2022-11-15T00:17:06;33.45;;;25.15;;
55202;SDS011;41077;52.956;6.796;2022-11-15T00:19:31;35.70;;;26.13;;
55202;SDS011;41077;52.956;6.796;2022-11-15T00:21:58;34.03;;;25.15;;
55202;SDS011;41077;52.956;6.796;2022-11-15T00:24:23;37.08;;;25.40;;
55202;SDS011;41077;52.956;6.796;2022-11-15T00:26:49;34.83;;;24.67;;
55202;SDS011;41077;52.956;6.796;2022-11-15T00:29:15;30.25;;;22.63;;
55202;SDS011;41077;52.956;6.796;2022-11-15T00:31:40;36.33;;;25.15;;
55202;SDS011;41077;52.956;6.796;2022-11-15T00:34:06;32.17;;;22.75;;
55202;SDS011;41077;52.956;6.796;2022-11-15T00:36:35;29.38;;;21.98;;
55202;SDS011;41077;52.956;6.796;2022-11-15T00:39:00;27.83;;;22.20;;
55202;SDS011;41077;52.956;6.796;2022-11-15T00:41:28;33.65;;;23.15;;
55202;SDS011;41077;52.956;6.796;2022-11-15T00:43:53;31.27;;;24.13;;
55202;SDS011;41077;52.956;6.796;2022-11-15T00:46:19;31.45;;;23.75;;
55202;SDS011;41077;52.956;6.796;2022-11-15T00:48:45;32.47;;;23.55;;
55202;SDS011;41077;52.956;6.796;2022-11-15T00:51:10;36.20;;;25.55;;
55202;SDS011;41077;52.956;6.796;2022-11-15T00:53:36;33.65;;;24.38;;
55202;SDS011;41077;52.956;6.796;2022-11-15T00:56:02;33.55;;;24.13;;
55202;SDS011;41077;52.956;6.796;2022-11-15T00:58:27;33.58;;;24.52;;
55202;SDS011;41077;52.956;6.796;2022-11-15T01:00:53;30.58;;;22.77;;
55202;SDS011;41077;52.956;6.796;2022-11-15T01:03:19;35.97;;;25.73;;
55202;SDS011;41077;52.956;6.796;2022-11-15T01:05:45;34.50;;;24.23;;
55202;SDS011;41077;52.956;6.796;2022-11-15T01:08:12;38.47;;;25.33;;
55202;SDS011;41077;52.956;6.796;2022-11-15T01:10:38;33.67;;;24.70;;
55202;SDS011;41077;52.956;6.796;2022-11-15T01:13:04;32.95;;;23.90;;
55202;SDS011;41077;52.956;6.796;2022-11-15T01:15:30;34.03;;;23.52;;
55202;SDS011;41077;52.956;6.796;2022-11-15T01:17:55;32.80;;;23.88;;
55202;SDS011;41077;52.956;6.796;2022-11-15T01:20:21;34.17;;;24.00;;
55202;SDS011;41077;52.956;6.796;2022-11-15T01:22:47;39.20;;;25.98;;
55202;SDS011;41077;52.956;6.796;2022-11-15T01:25:12;37.88;;;25.20;;
55202;SDS011;41077;52.956;6.796;2022-11-15T01:27:38;39.03;;;23.60;;
55202;SDS011;41077;52.956;6.796;2022-11-15T01:30:04;36.88;;;24.30;;
55202;SDS011;41077;52.956;6.796;2022-11-15T01:32:30;32.00;;;22.92;;
55202;SDS011;41077;52.956;6.796;2022-11-15T01:34:56;37.17;;;25.13;;
55202;SDS011;41077;52.956;6.796;2022-11-15T01:37:21;34.58;;;25.70;;
55202;SDS011;41077;52.956;6.796;2022-11-15T01:39:47;37.38;;;25.15;;
55202;SDS011;41077;52.956;6.796;2022-11-15T01:42:13;34.33;;;24.08;;
55202;SDS011;41077;52.956;6.796;2022-11-15T01:50:10;38.35;;;24.05;;
55202;SDS011;41077;52.956;6.796;2022-11-15T01:52:40;37.90;;;24.90;;
55202;SDS011;41077;52.956;6.796;2022-11-15T01:55:20;38.00;;;25.02;;
55202;SDS011;41077;52.956;6.796;2022-11-15T01:57:50;42.75;;;26.15;;
55202;SDS011;41077;52.956;6.796;2022-11-15T02:00:20;35.17;;;23.55;;
55202;SDS011;41077;52.956;6.796;2022-11-15T02:02:46;41.47;;;25.75;;
55202;SDS011;41077;52.956;6.796;2022-11-15T02:05:11;40.58;;;25.27;;
55202;SDS011;41077;52.956;6.796;2022-11-15T02:07:37;34.88;;;23.45;;
55202;SDS011;41077;52.956;6.796;2022-11-15T02:10:08;36.53;;;24.75;;
55202;SDS011;41077;52.956;6.796;2022-11-15T02:12:35;36.10;;;24.58;;
55202;SDS011;41077;52.956;6.796;2022-11-15T02:15:02;32.33;;;23.10;;
55202;SDS011;41077;52.956;6.796;2022-11-15T02:25:38;35.28;;;23.35;;
55202;SDS011;41077;52.956;6.796;2022-11-15T02:30:54;36.57;;;24.43;;
55202;SDS011;41077;52.956;6.796;2022-11-15T02:36:22;35.58;;;23.67;;
55202;SDS011;41077;52.956;6.796;2022-11-15T02:41:52;37.50;;;25.48;;
55202;SDS011;41077;52.956;6.796;2022-11-15T02:44:56;34.75;;;23.52;;
55202;SDS011;41077;52.956;6.796;2022-11-15T02:47:27;43.70;;;26.17;;
55202;SDS011;41077;52.956;6.796;2022-11-15T02:49:56;43.85;;;25.98;;
55202;SDS011;41077;52.956;6.796;2022-11-15T02:52:25;42.75;;;26.50;;
55202;SDS011;41077;52.956;6.796;2022-11-15T02:57:24;44.70;;;26.85;;
55202;SDS011;41077;52.956;6.796;2022-11-15T03:00:05;47.08;;;26.52;;
55202;SDS011;41077;52.956;6.796;2022-11-15T03:10:12;45.65;;;27.60;;
55202;SDS011;41077;52.956;6.796;2022-11-15T03:12:46;42.47;;;25.75;;
55202;SDS011;41077;52.956;6.796;2022-11-15T03:15:23;44.17;;;27.10;;
55202;SDS011;41077;52.956;6.796;2022-11-15T03:17:55;46.63;;;28.20;;
55202;SDS011;41077;52.956;6.796;2022-11-15T03:20:26;48.30;;;28.67;;
55202;SDS011;41077;52.956;6.796;2022-11-15T03:22:55;54.17;;;28.70;;
55202;SDS011;41077;52.956;6.796;2022-11-15T03:25:25;47.42;;;29.00;;
55202;SDS011;41077;52.956;6.796;2022-11-15T03:27:53;57.33;;;29.65;;
55202;SDS011;41077;52.956;6.796;2022-11-15T03:30:22;57.35;;;30.52;;
55202;SDS011;41077;52.956;6.796;2022-11-15T03:32:52;50.20;;;30.08;;
55202;SDS011;41077;52.956;6.796;2022-11-15T03:35:22;50.30;;;28.98;;
55202;SDS011;41077;52.956;6.796;2022-11-15T03:37:51;51.17;;;29.95;;
55202;SDS011;41077;52.956;6.796;2022-11-15T03:40:39;52.78;;;30.13;;
55202;SDS011;41077;52.956;6.796;2022-11-15T03:43:09;54.45;;;29.90;;
55202;SDS011;41077;52.956;6.796;2022-11-15T03:45:39;57.63;;;30.30;;
55202;SDS011;41077;52.956;6.796;2022-11-15T03:48:15;71.15;;;29.67;;
55202;SDS011;41077;52.956;6.796;2022-11-15T03:50:47;56.35;;;31.45;;
55202;SDS011;41077;52.956;6.796;2022-11-15T03:53:14;59.67;;;31.85;;
55202;SDS011;41077;52.956;6.796;2022-11-15T03:55:39;65.45;;;32.63;;
55202;SDS011;41077;52.956;6.796;2022-11-15T03:58:06;65.22;;;32.85;;
55202;SDS011;41077;52.956;6.796;2022-11-15T04:00:31;64.38;;;32.03;;
55202;SDS011;41077;52.956;6.796;2022-11-15T04:02:57;70.75;;;35.35;;
55202;SDS011;41077;52.956;6.796;2022-11-15T04:05:23;67.38;;;34.20;;
55202;SDS011;41077;52.956;6.796;2022-11-15T04:07:49;71.68;;;36.92;;
55202;SDS011;41077;52.956;6.796;2022-11-15T04:10:14;68.13;;;36.15;;
55202;SDS011;41077;52.956;6.796;2022-11-15T04:12:41;76.60;;;37.80;;
55202;SDS011;41077;52.956;6.796;2022-11-15T04:15:12;66.88;;;35.95;;
55202;SDS011;41077;52.956;6.796;2022-11-15T04:17:41;80.18;;;38.10;;
55202;SDS011;41077;52.956;6.796;2022-11-15T04:20:11;82.38;;;38.55;;
55202;SDS011;41077;52.956;6.796;2022-11-15T04:22:57;78.05;;;37.25;;
55202;SDS011;41077;52.956;6.796;2022-11-15T04:25:42;79.10;;;36.67;;
55202;SDS011;41077;52.956;6.796;2022-11-15T04:28:08;84.38;;;38.67;;
55202;SDS011;41077;52.956;6.796;2022-11-15T04:30:35;70.25;;;37.08;;
55202;SDS011;41077;52.956;6.796;2022-11-15T04:33:00;75.10;;;37.38;;
55202;SDS011;41077;52.956;6.796;2022-11-15T04:35:26;81.97;;;38.35;;
55202;SDS011;41077;52.956;6.796;2022-11-15T04:37:52;79.40;;;37.47;;
55202;SDS011;41077;52.956;6.796;2022-11-15T04:40:18;76.82;;;39.10;;
55202;SDS011;41077;52.956;6.796;2022-11-15T04:42:44;75.07;;;37.33;;
55202;SDS011;41077;52.956;6.796;2022-11-15T04:45:10;77.63;;;40.97;;
55202;SDS011;41077;52.956;6.796;2022-11-15T04:47:36;77.15;;;39.40;;
55202;SDS011;41077;52.956;6.796;2022-11-15T04:50:02;74.50;;;39.00;;
55202;SDS011;41077;52.956;6.796;2022-11-15T04:52:28;87.20;;;41.47;;
55202;SDS011;41077;52.956;6.796;2022-11-15T04:54:54;82.20;;;41.03;;
55202;SDS011;41077;52.956;6.796;2022-11-15T04:57:19;86.93;;;39.80;;
55202;SDS011;41077;52.956;6.796;2022-11-15T04:59:45;74.32;;;36.90;;
55202;SDS011;41077;52.956;6.796;2022-11-15T05:02:11;65.13;;;36.28;;
55202;SDS011;41077;52.956;6.796;2022-11-15T05:04:36;83.88;;;35.10;;
55202;SDS011;41077;52.956;6.796;2022-11-15T05:07:02;71.75;;;35.60;;
55202;SDS011;41077;52.956;6.796;2022-11-15T05:09:31;75.13;;;34.70;;
55202;SDS011;41077;52.956;6.796;2022-11-15T05:11:57;79.40;;;36.80;;
55202;SDS011;41077;52.956;6.796;2022-11-15T05:14:22;76.75;;;38.85;;
55202;SDS011;41077;52.956;6.796;2022-11-15T05:16:48;73.22;;;38.95;;
55202;SDS011;41077;52.956;6.796;2022-11-15T05:19:14;101.68;;;38.90;;
55202;SDS011;41077;52.956;6.796;2022-11-15T05:21:40;81.95;;;39.53;;
55202;SDS011;41077;52.956;6.796;2022-11-15T05:24:06;82.03;;;39.50;;
55202;SDS011;41077;52.956;6.796;2022-11-15T05:26:32;88.00;;;40.42;;
55202;SDS011;41077;52.956;6.796;2022-11-15T05:28:58;82.88;;;40.70;;
55202;SDS011;41077;52.956;6.796;2022-11-15T05:31:24;96.13;;;44.13;;
55202;SDS011;41077;52.956;6.796;2022-11-15T05:33:51;87.28;;;43.45;;
55202;SDS011;41077;52.956;6.796;2022-11-15T05:36:24;90.00;;;46.40;;
55202;SDS011;41077;52.956;6.796;2022-11-15T05:39:07;102.85;;;46.50;;
55202;SDS011;41077;52.956;6.796;2022-11-15T05:41:35;93.93;;;44.65;;
55202;SDS011;41077;52.956;6.796;2022-11-15T05:44:09;93.50;;;46.00;;
55202;SDS011;41077;52.956;6.796;2022-11-15T05:46:37;90.82;;;44.67;;
55202;SDS011;41077;52.956;6.796;2022-11-15T05:49:05;91.60;;;45.20;;
55202;SDS011;41077;52.956;6.796;2022-11-15T05:51:35;100.63;;;46.13;;
55202;SDS011;41077;52.956;6.796;2022-11-15T05:54:01;97.53;;;45.42;;
55202;SDS011;41077;52.956;6.796;2022-11-15T05:56:28;105.47;;;44.97;;
55202;SDS011;41077;52.956;6.796;2022-11-15T05:58:55;91.45;;;43.30;;
55202;SDS011;41077;52.956;6.796;2022-11-15T06:01:22;91.95;;;42.92;;
55202;SDS011;41077;52.956;6.796;2022-11-15T06:03:49;93.85;;;43.70;;
55202;SDS011;41077;52.956;6.796;2022-11-15T06:06:15;87.65;;;43.42;;
55202;SDS011;41077;52.956;6.796;2022-11-15T06:08:40;89.85;;;43.28;;
55202;SDS011;41077;52.956;6.796;2022-11-15T06:11:06;75.00;;;41.75;;
55202;SDS011;41077;52.956;6.796;2022-11-15T06:13:33;81.65;;;43.72;;
55202;SDS011;41077;52.956;6.796;2022-11-15T06:15:59;73.20;;;40.38;;
55202;SDS011;41077;52.956;6.796;2022-11-15T06:18:25;77.22;;;41.42;;
55202;SDS011;41077;52.956;6.796;2022-11-15T06:20:51;79.80;;;42.33;;
55202;SDS011;41077;52.956;6.796;2022-11-15T06:23:17;80.57;;;41.67;;
55202;SDS011;41077;52.956;6.796;2022-11-15T06:25:42;77.25;;;41.10;;
55202;SDS011;41077;52.956;6.796;2022-11-15T06:28:08;71.40;;;40.13;;
55202;SDS011;41077;52.956;6.796;2022-11-15T06:30:34;76.13;;;38.80;;
55202;SDS011;41077;52.956;6.796;2022-11-15T06:33:00;68.82;;;37.55;;
55202;SDS011;41077;52.956;6.796;2022-11-15T06:35:27;72.65;;;38.13;;
55202;SDS011;41077;52.956;6.796;2022-11-15T06:37:54;77.85;;;38.78;;
55202;SDS011;41077;52.956;6.796;2022-11-15T06:40:19;66.20;;;36.67;;
55202;SDS011;41077;52.956;6.796;2022-11-15T06:42:45;62.08;;;37.00;;
55202;SDS011;41077;52.956;6.796;2022-11-15T06:45:11;74.80;;;37.95;;
55202;SDS011;41077;52.956;6.796;2022-11-15T06:47:43;67.82;;;36.05;;
55202;SDS011;41077;52.956;6.796;2022-11-15T06:50:10;64.88;;;36.25;;
55202;SDS011;41077;52.956;6.796;2022-11-15T06:52:36;70.88;;;37.65;;
55202;SDS011;41077;52.956;6.796;2022-11-15T06:55:02;62.30;;;34.28;;
55202;SDS011;41077;52.956;6.796;2022-11-15T06:57:27;68.75;;;36.42;;
55202;SDS011;41077;52.956;6.796;2022-11-15T06:59:53;74.10;;;35.65;;
55202;SDS011;41077;52.956;6.796;2022-11-15T07:02:19;60.90;;;35.25;;
55202;SDS011;41077;52.956;6.796;2022-11-15T07:04:45;67.95;;;35.70;;
55202;SDS011;41077;52.956;6.796;2022-11-15T07:07:11;70.20;;;35.67;;
55202;SDS011;41077;52.956;6.796;2022-11-15T07:09:36;63.65;;;34.83;;
55202;SDS011;41077;52.956;6.796;2022-11-15T07:12:02;71.20;;;35.47;;
55202;SDS011;41077;52.956;6.796;2022-11-15T07:14:28;66.75;;;34.67;;
55202;SDS011;41077;52.956;6.796;2022-11-15T07:16:54;60.40;;;33.38;;
55202;SDS011;41077;52.956;6.796;2022-11-15T07:19:19;63.20;;;34.85;;
55202;SDS011;41077;52.956;6.796;2022-11-15T07:21:45;66.07;;;35.60;;
55202;SDS011;41077;52.956;6.796;2022-11-15T07:24:11;60.38;;;34.80;;
55202;SDS011;41077;52.956;6.796;2022-11-15T07:26:37;58.15;;;33.10;;
55202;SDS011;41077;52.956;6.796;2022-11-15T07:29:03;58.20;;;34.17;;
55202;SDS011;41077;52.956;6.796;2022-11-15T07:31:28;64.35;;;32.97;;
55202;SDS011;41077;52.956;6.796;2022-11-15T07:33:54;59.55;;;33.67;;
55202;SDS011;41077;52.956;6.796;2022-11-15T07:36:20;57.38;;;33.40;;
55202;SDS011;41077;52.956;6.796;2022-11-15T07:38:45;49.30;;;30.75;;
55202;SDS011;41077;52.956;6.796;2022-11-15T07:41:11;51.40;;;31.92;;
55202;SDS011;41077;52.956;6.796;2022-11-15T07:43:36;81.90;;;34.33;;
55202;SDS011;41077;52.956;6.796;2022-11-15T07:46:06;51.83;;;33.40;;
55202;SDS011;41077;52.956;6.796;2022-11-15T07:48:34;54.45;;;32.42;;
55202;SDS011;41077;52.956;6.796;2022-11-15T07:51:05;50.58;;;31.25;;
55202;SDS011;41077;52.956;6.796;2022-11-15T07:53:32;52.85;;;31.23;;
55202;SDS011;41077;52.956;6.796;2022-11-15T07:55:57;50.95;;;30.88;;
55202;SDS011;41077;52.956;6.796;2022-11-15T07:58:23;48.58;;;29.80;;
55202;SDS011;41077;52.956;6.796;2022-11-15T08:00:49;53.38;;;30.63;;
55202;SDS011;41077;52.956;6.796;2022-11-15T08:03:15;50.42;;;31.88;;
55202;SDS011;41077;52.956;6.796;2022-11-15T08:05:42;54.25;;;31.38;;
55202;SDS011;41077;52.956;6.796;2022-11-15T08:08:09;53.78;;;30.70;;
55202;SDS011;41077;52.956;6.796;2022-11-15T08:10:36;50.42;;;30.38;;
55202;SDS011;41077;52.956;6.796;2022-11-15T08:13:03;48.20;;;29.58;;
55202;SDS011;41077;52.956;6.796;2022-11-15T08:15:31;54.58;;;29.70;;
55202;SDS011;41077;52.956;6.796;2022-11-15T08:17:58;44.58;;;30.13;;
55202;SDS011;41077;52.956;6.796;2022-11-15T08:20:26;52.47;;;31.17;;
55202;SDS011;41077;52.956;6.796;2022-11-15T08:22:56;43.50;;;29.40;;
55202;SDS011;41077;52.956;6.796;2022-11-15T08:25:23;48.38;;;29.27;;
55202;SDS011;41077;52.956;6.796;2022-11-15T08:27:52;48.42;;;28.48;;
55202;SDS011;41077;52.956;6.796;2022-11-15T08:30:18;48.53;;;29.48;;
55202;SDS011;41077;52.956;6.796;2022-11-15T08:32:44;48.70;;;31.05;;
55202;SDS011;41077;52.956;6.796;2022-11-15T08:35:10;48.30;;;30.75;;
55202;SDS011;41077;52.956;6.796;2022-11-15T08:37:36;47.00;;;27.15;;
55202;SDS011;41077;52.956;6.796;2022-11-15T08:40:02;46.33;;;31.00;;
55202;SDS011;41077;52.956;6.796;2022-11-15T08:42:28;41.67;;;29.50;;
55202;SDS011;41077;52.956;6.796;2022-11-15T08:44:55;44.03;;;29.85;;
55202;SDS011;41077;52.956;6.796;2022-11-15T08:47:20;44.83;;;28.10;;
55202;SDS011;41077;52.956;6.796;2022-11-15T08:49:46;44.80;;;29.55;;
55202;SDS011;41077;52.956;6.796;2022-11-15T08:52:12;45.20;;;28.27;;
55202;SDS011;41077;52.956;6.796;2022-11-15T08:54:39;39.90;;;28.60;;
55202;SDS011;41077;52.956;6.796;2022-11-15T08:57:06;41.25;;;28.58;;
55202;SDS011;41077;52.956;6.796;2022-11-15T08:59:32;42.97;;;28.52;;
55202;SDS011;41077;52.956;6.796;2022-11-15T09:01:57;38.92;;;27.52;;
55202;SDS011;41077;52.956;6.796;2022-11-15T09:04:23;40.85;;;28.75;;
55202;SDS011;41077;52.956;6.796;2022-11-15T09:06:49;38.33;;;27.33;;
55202;SDS011;41077;52.956;6.796;2022-11-15T09:09:14;40.33;;;27.98;;
55202;SDS011;41077;52.956;6.796;2022-11-15T09:11:40;37.05;;;26.88;;
55202;SDS011;41077;52.956;6.796;2022-11-15T09:14:06;39.30;;;27.30;;
55202;SDS011;41077;52.956;6.796;2022-11-15T09:16:31;39.95;;;26.73;;
55202;SDS011;41077;52.956;6.796;2022-11-15T09:18:57;40.53;;;28.30;;
55202;SDS011;41077;52.956;6.796;2022-11-15T09:21:23;40.75;;;28.17;;
55202;SDS011;41077;52.956;6.796;2022-11-15T09:23:51;41.45;;;26.65;;
55202;SDS011;41077;52.956;6.796;2022-11-15T09:26:18;39.95;;;27.23;;
55202;SDS011;41077;52.956;6.796;2022-11-15T09:28:44;35.80;;;25.73;;
55202;SDS011;41077;52.956;6.796;2022-11-15T09:31:09;37.05;;;26.77;;
55202;SDS011;41077;52.956;6.796;2022-11-15T09:33:35;37.22;;;27.17;;
55202;SDS011;41077;52.956;6.796;2022-11-15T09:36:05;41.75;;;26.42;;
55202;SDS011;41077;52.956;6.796;2022-11-15T09:38:32;38.47;;;25.63;;
55202;SDS011;41077;52.956;6.796;2022-11-15T09:41:08;35.13;;;25.45;;
55202;SDS011;41077;52.956;6.796;2022-11-15T09:49:21;36.22;;;26.75;;
55202;SDS011;41077;52.956;6.796;2022-11-15T09:51:48;37.67;;;27.58;;
55202;SDS011;41077;52.956;6.796;2022-11-15T09:54:31;42.47;;;27.80;;
55202;SDS011;41077;52.956;6.796;2022-11-15T10:05:07;40.88;;;29.92;;
55202;SDS011;41077;52.956;6.796;2022-11-15T10:10:30;43.35;;;28.80;;
55202;SDS011;41077;52.956;6.796;2022-11-15T10:13:14;43.00;;;31.73;;
55202;SDS011;41077;52.956;6.796;2022-11-15T10:15:47;39.50;;;29.48;;
55202;SDS011;41077;52.956;6.796;2022-11-15T10:18:16;44.25;;;30.20;;
55202;SDS011;41077;52.956;6.796;2022-11-15T10:20:50;41.38;;;31.38;;
55202;SDS011;41077;52.956;6.796;2022-11-15T10:23:20;43.83;;;31.95;;
55202;SDS011;41077;52.956;6.796;2022-11-15T10:25:47;43.17;;;31.63;;
55202;SDS011;41077;52.956;6.796;2022-11-15T10:28:21;45.83;;;32.80;;
55202;SDS011;41077;52.956;6.796;2022-11-15T10:30:55;46.08;;;31.05;;
55202;SDS011;41077;52.956;6.796;2022-11-15T10:33:35;40.40;;;31.88;;
55202;SDS011;41077;52.956;6.796;2022-11-15T10:38:54;36.20;;;29.65;;
55202;SDS011;41077;52.956;6.796;2022-11-15T10:46:37;38.88;;;28.75;;
55202;SDS011;41077;52.956;6.796;2022-11-15T10:49:18;35.85;;;28.13;;
55202;SDS011;41077;52.956;6.796;2022-11-15T10:51:57;37.88;;;28.40;;
55202;SDS011;41077;52.956;6.796;2022-11-15T10:54:54;36.38;;;29.85;;
55202;SDS011;41077;52.956;6.796;2022-11-15T10:57:35;44.95;;;33.95;;
55202;SDS011;41077;52.956;6.796;2022-11-15T11:02:36;42.22;;;32.28;;
55202;SDS011;41077;52.956;6.796;2022-11-15T11:08:01;37.13;;;30.58;;
55202;SDS011;41077;52.956;6.796;2022-11-15T11:10:29;38.55;;;28.83;;
55202;SDS011;41077;52.956;6.796;2022-11-15T11:12:55;32.88;;;27.55;;
55202;SDS011;41077;52.956;6.796;2022-11-15T11:15:21;37.63;;;25.27;;
55202;SDS011;41077;52.956;6.796;2022-11-15T11:23:03;30.65;;;23.65;;
55202;SDS011;41077;52.956;6.796;2022-11-15T11:34:36;19.63;;;17.25;;
55202;SDS011;41077;52.956;6.796;2022-11-15T11:37:28;20.63;;;18.08;;
55202;SDS011;41077;52.956;6.796;2022-11-15T11:45:46;21.55;;;14.43;;
55202;SDS011;41077;52.956;6.796;2022-11-15T11:51:27;27.48;;;14.48;;
55202;SDS011;41077;52.956;6.796;2022-11-15T11:54:05;15.43;;;12.27;;
55202;SDS011;41077;52.956;6.796;2022-11-15T11:56:38;12.10;;;10.50;;
55202;SDS011;41077;52.956;6.796;2022-11-15T11:59:16;15.98;;;9.88;;
55202;SDS011;41077;52.956;6.796;2022-11-15T12:02:19;13.13;;;9.88;;
55202;SDS011;41077;52.956;6.796;2022-11-15T12:04:53;18.25;;;10.50;;
55202;SDS011;41077;52.956;6.796;2022-11-15T12:07:29;21.60;;;10.32;;
55202;SDS011;41077;52.956;6.796;2022-11-15T12:09:59;13.52;;;10.82;;
55202;SDS011;41077;52.956;6.796;2022-11-15T12:15:22;20.63;;;14.30;;
55202;SDS011;41077;52.956;6.796;2022-11-15T12:18:12;11.43;;;9.23;;
55202;SDS011;41077;52.956;6.796;2022-11-15T12:20:47;16.23;;;10.77;;
55202;SDS011;41077;52.956;6.796;2022-11-15T12:23:23;15.43;;;9.43;;
55202;SDS011;41077;52.956;6.796;2022-11-15T12:31:16;13.13;;;9.05;;
55202;SDS011;41077;52.956;6.796;2022-11-15T12:33:57;11.25;;;9.32;;
55202;SDS011;41077;52.956;6.796;2022-11-15T12:38:53;16.17;;;9.27;;
55202;SDS011;41077;52.956;6.796;2022-11-15T12:43:53;10.70;;;8.55;;
55202;SDS011;41077;52.956;6.796;2022-11-15T12:46:21;12.18;;;9.05;;
55202;SDS011;41077;52.956;6.796;2022-11-15T12:49:11;12.07;;;8.88;;
55202;SDS011;41077;52.956;6.796;2022-11-15T13:02:20;26.17;;;12.23;;
55202;SDS011;41077;52.956;6.796;2022-11-15T13:04:52;26.75;;;12.00;;
55202;SDS011;41077;52.956;6.796;2022-11-15T13:10:07;10.43;;;7.20;;
55202;SDS011;41077;52.956;6.796;2022-11-15T13:12:53;9.43;;;6.95;;
55202;SDS011;41077;52.956;6.796;2022-11-15T13:15:34;10.38;;;6.95;;
55202;SDS011;41077;52.956;6.796;2022-11-15T13:20:57;6.97;;;6.35;;
55202;SDS011;41077;52.956;6.796;2022-11-15T13:23:24;11.40;;;6.32;;
55202;SDS011;41077;52.956;6.796;2022-11-15T13:28:32;13.75;;;7.78;;
55202;SDS011;41077;52.956;6.796;2022-11-15T13:31:02;9.07;;;6.22;;
55202;SDS011;41077;52.956;6.796;2022-11-15T13:33:43;8.75;;;5.95;;
55202;SDS011;41077;52.956;6.796;2022-11-15T13:36:14;8.77;;;6.18;;
55202;SDS011;41077;52.956;6.796;2022-11-15T13:38:58;6.90;;;6.20;;
55202;SDS011;41077;52.956;6.796;2022-11-15T13:41:27;8.30;;;6.45;;
55202;SDS011;41077;52.956;6.796;2022-11-15T13:43:55;8.18;;;6.00;;
55202;SDS011;41077;52.956;6.796;2022-11-15T13:48:58;8.45;;;5.93;;
55202;SDS011;41077;52.956;6.796;2022-11-15T13:56:51;7.75;;;5.90;;
55202;SDS011;41077;52.956;6.796;2022-11-15T13:59:54;9.85;;;6.07;;
55202;SDS011;41077;52.956;6.796;2022-11-15T14:02:21;9.70;;;6.22;;
55202;SDS011;41077;52.956;6.796;2022-11-15T14:04:52;6.10;;;5.35;;
55202;SDS011;41077;52.956;6.796;2022-11-15T14:07:21;12.07;;;5.15;;
55202;SDS011;41077;52.956;6.796;2022-11-15T14:09:48;6.50;;;5.82;;
55202;SDS011;41077;52.956;6.796;2022-11-15T14:15:00;12.05;;;5.40;;
55202;SDS011;41077;52.956;6.796;2022-11-15T14:17:46;8.40;;;7.78;;
55202;SDS011;41077;52.956;6.796;2022-11-15T14:20:28;7.22;;;6.60;;
55202;SDS011;41077;52.956;6.796;2022-11-15T14:22:57;5.55;;;4.88;;
55202;SDS011;41077;52.956;6.796;2022-11-15T14:25:25;5.80;;;5.22;;
55202;SDS011;41077;52.956;6.796;2022-11-15T14:30:51;7.40;;;5.72;;
55202;SDS011;41077;52.956;6.796;2022-11-15T14:35:46;6.22;;;5.63;;
55202;SDS011;41077;52.956;6.796;2022-11-15T14:38:12;6.45;;;5.05;;
55202;SDS011;41077;52.956;6.796;2022-11-15T14:40:38;6.32;;;5.25;;
55202;SDS011;41077;52.956;6.796;2022-11-15T14:43:03;6.22;;;5.63;;
55202;SDS011;41077;52.956;6.796;2022-11-15T14:45:29;7.07;;;5.88;;
55202;SDS011;41077;52.956;6.796;2022-11-15T14:47:55;6.32;;;5.55;;
55202;SDS011;41077;52.956;6.796;2022-11-15T14:50:21;7.15;;;5.72;;
55202;SDS011;41077;52.956;6.796;2022-11-15T14:52:47;6.35;;;5.75;;
55202;SDS011;41077;52.956;6.796;2022-11-15T14:55:17;6.47;;;5.65;;
55202;SDS011;41077;52.956;6.796;2022-11-15T14:57:49;6.50;;;5.90;;
55202;SDS011;41077;52.956;6.796;2022-11-15T15:00:15;8.10;;;6.35;;
55202;SDS011;41077;52.956;6.796;2022-11-15T15:02:42;6.75;;;6.00;;
55202;SDS011;41077;52.956;6.796;2022-11-15T15:05:19;7.40;;;6.18;;
55202;SDS011;41077;52.956;6.796;2022-11-15T15:07:47;6.10;;;5.60;;
55202;SDS011;41077;52.956;6.796;2022-11-15T15:10:13;5.97;;;5.47;;
55202;SDS011;41077;52.956;6.796;2022-11-15T15:12:40;7.05;;;6.35;;
55202;SDS011;41077;52.956;6.796;2022-11-15T15:15:06;6.70;;;6.10;;
55202;SDS011;41077;52.956;6.796;2022-11-15T15:17:38;7.45;;;6.07;;
55202;SDS011;41077;52.956;6.796;2022-11-15T15:20:03;9.35;;;6.25;;
55202;SDS011;41077;52.956;6.796;2022-11-15T15:22:29;9.77;;;7.28;;
55202;SDS011;41077;52.956;6.796;2022-11-15T15:24:55;8.07;;;6.55;;
55202;SDS011;41077;52.956;6.796;2022-11-15T15:27:21;7.40;;;6.07;;
55202;SDS011;41077;52.956;6.796;2022-11-15T15:29:46;8.73;;;6.78;;
55202;SDS011;41077;52.956;6.796;2022-11-15T15:32:12;7.38;;;6.63;;
55202;SDS011;41077;52.956;6.796;2022-11-15T15:34:38;8.32;;;7.53;;
55202;SDS011;41077;52.956;6.796;2022-11-15T15:39:34;7.25;;;6.50;;
55202;SDS011;41077;52.956;6.796;2022-11-15T15:41:59;8.45;;;7.53;;
55202;SDS011;41077;52.956;6.796;2022-11-15T15:44:25;8.05;;;7.35;;
55202;SDS011;41077;52.956;6.796;2022-11-15T15:46:50;13.32;;;7.38;;
55202;SDS011;41077;52.956;6.796;2022-11-15T15:49:16;10.55;;;8.23;;
55202;SDS011;41077;52.956;6.796;2022-11-15T15:51:42;10.00;;;8.05;;
55202;SDS011;41077;52.956;6.796;2022-11-15T15:54:08;8.60;;;7.85;;
55202;SDS011;41077;52.956;6.796;2022-11-15T15:56:34;8.80;;;7.97;;
55202;SDS011;41077;52.956;6.796;2022-11-15T15:59:00;10.63;;;8.23;;
55202;SDS011;41077;52.956;6.796;2022-11-15T16:01:25;9.32;;;8.40;;
55202;SDS011;41077;52.956;6.796;2022-11-15T16:03:51;11.15;;;7.75;;
55202;SDS011;41077;52.956;6.796;2022-11-15T16:06:50;10.85;;;7.80;;
55202;SDS011;41077;52.956;6.796;2022-11-15T16:09:15;10.02;;;7.75;;
55202;SDS011;41077;52.956;6.796;2022-11-15T16:11:43;9.13;;;8.23;;
55202;SDS011;41077;52.956;6.796;2022-11-15T16:14:10;7.38;;;6.70;;
55202;SDS011;41077;52.956;6.796;2022-11-15T16:16:36;9.93;;;7.32;;
55202;SDS011;41077;52.956;6.796;2022-11-15T16:19:03;7.50;;;6.75;;
55202;SDS011;41077;52.956;6.796;2022-11-15T16:21:29;8.07;;;7.22;;
55202;SDS011;41077;52.956;6.796;2022-11-15T16:23:55;13.85;;;7.95;;
55202;SDS011;41077;52.956;6.796;2022-11-15T16:26:22;9.40;;;7.43;;
55202;SDS011;41077;52.956;6.796;2022-11-15T16:28:50;10.52;;;7.32;;
55202;SDS011;41077;52.956;6.796;2022-11-15T16:31:17;9.30;;;7.82;;
55202;SDS011;41077;52.956;6.796;2022-11-15T16:33:45;8.68;;;7.88;;
55202;SDS011;41077;52.956;6.796;2022-11-15T16:36:18;8.38;;;7.45;;
55202;SDS011;41077;52.956;6.796;2022-11-15T16:38:48;9.60;;;8.23;;
55202;SDS011;41077;52.956;6.796;2022-11-15T16:41:14;7.93;;;7.22;;
55202;SDS011;41077;52.956;6.796;2022-11-15T16:43:43;12.50;;;6.93;;
55202;SDS011;41077;52.956;6.796;2022-11-15T16:46:15;7.25;;;6.53;;
55202;SDS011;41077;52.956;6.796;2022-11-15T16:48:43;7.47;;;6.82;;
55202;SDS011;41077;52.956;6.796;2022-11-15T16:51:09;6.85;;;6.15;;